Shumway, IL (62461)

2:37 AM CST on February 09, 2016 (GMT -0600)
Kralman | | Change Station
CLOSE
Current Station
Personal Weather Station
Location: Effingham, IL
Elevation: 607 ft
Nearby Weather Stations

Elev 607 ft 39.13 °N, 88.53 °W | Updated 11 seconds ago

Snow
Snow
17.8 °F
Feels Like 11 °F
N
4.9
Wind Variable Wind from WNW
Gusts 9.0 mph

Today
High -- | Low -- °F
--% Chance of Precip.
Yesterday
High -- | Low -- °F
Precip. -- in
Pressure 29.86 in
Visibility 10.0 miles
Clouds Mostly Cloudy 1900 ft
Mostly Cloudy 2400 ft
Overcast 2900 ft
Windchill 11 °F
Dew Point 14 °F
Humidity 86%
Rainfall 0.00 in
Snow Depth Not available.
6:53 AM 5:24 PM
New Moon, 1% visible
METAR K1H2 090815Z AUTO 26009KT 10SM -SN BKN019 BKN024 OVC029 M07/M09 A2986 RMK AO2 T10701090
Pressure 29.86 in
Visibility 10.0 miles
Clouds Mostly Cloudy 1900 ft
Mostly Cloudy 2400 ft
Overcast 2900 ft
Windchill 11 °F
Dew Point 14 °F
Humidity 86%
Rainfall 0.00 in
Snow Depth Not available.
6:53 AM 5:24 PM
New Moon, 1% visible
METAR K1H2 090815Z AUTO 26009KT 10SM -SN BKN019 BKN024 OVC029 M07/M09 A2986 RMK AO2 T10701090

10-Day Weather Forecast

Almanac

Astronomy

Feb. 09, 2016 Rise Set
Actual Time
Civil Twilight
Nautical Twilight
Astronomical Twilight
Moon
Length of Visible Light
Length of Day
Tomorrow will be .
, % of the Moon is Illuminated

Today's Extremes

State Highs State Lows

Community

WunderPhotos

Upload Photos

1,891,571 photos uploaded!

WunderBlog® & News

Nearby

Air Quality

  Air Quality AQ Index Pollutant
Not available.

Snow Depth

Station Depth Elevation

Earthquake Activity

City Distance Mag. Time & Date
Minimum magnitude displayed is 2.5.

Coastal Water Temperatures

Place Temperature

Stations

Nearby Weather Stations

Station Location Temp. Windchill Dew Point Humidity Wind Precip. Elev Updated Type
                   

Watches & Warnings

There are currently no watches in effect.